Time;durP1;ratioP1;P1;durP2;ratioP2;P2;SDS_P1;SDS_P2;PMS_P1;PMS_P2;Temp;Humidity;BMP_temperature;BMP_pressure;BME280_temperature;BME280_humidity;BME280_pressure;Samples;Min_cycle;Max_cycle;Signal;HPM_P1;HPM_P2
2021/05/22 00:02:18;;;;;;;8.02;2.67;;;;;;;12.84;55.10;99871.97;4956897;29;20055;-52
2021/05/22 00:05:07;;;;;;;5.38;2.30;;;;;;;12.90;55.30;99874.31;4969589;28;20062;-53
2021/05/22 00:07:54;;;;;;;5.32;2.05;;;;;;;12.89;55.14;99866.41;4956516;29;20453;-50
2021/05/22 00:10:42;;;;;;;4.28;2.15;;;;;;;12.78;54.70;99855.69;4956710;29;20481;-51
2021/05/22 00:13:30;;;;;;;7.05;2.30;;;;;;;12.83;56.26;99857.50;4956295;28;20359;-50
2021/05/22 00:16:17;;;;;;;8.95;2.60;;;;;;;12.83;54.98;99856.72;4956511;29;20514;-51
2021/05/22 00:19:05;;;;;;;5.72;2.40;;;;;;;12.83;54.18;99853.97;4956823;29;20125;-52
2021/05/22 00:21:53;;;;;;;5.47;2.10;;;;;;;12.78;55.89;99846.69;4955665;28;20154;-49
2021/05/22 00:24:40;;;;;;;9.27;2.45;;;;;;;12.70;55.20;99850.97;4956514;28;20203;-49
2021/05/22 00:27:28;;;;;;;6.40;2.15;;;;;;;12.65;54.78;99831.94;4955941;28;20047;-48
2021/05/22 00:30:20;;;;;;;4.90;2.35;;;;;;;12.64;55.33;99830.31;4956406;28;20058;-50
2021/05/22 00:33:08;;;;;;;8.25;2.42;;;;;;;12.61;54.92;99830.13;4956343;28;20515;-50
2021/05/22 00:35:55;;;;;;;7.68;2.42;;;;;;;12.61;54.82;99830.13;4956306;29;20059;-52
2021/05/22 00:38:43;;;;;;;8.23;2.42;;;;;;;12.67;55.56;99823.41;4955981;29;20051;-50
2021/05/22 00:41:31;;;;;;;6.63;2.30;;;;;;;12.63;54.42;99819.69;4955476;28;20392;-51
2021/05/22 00:44:27;;;;;;;5.57;2.17;;;;;;;12.62;54.17;99818.06;4956081;29;20039;-49
2021/05/22 00:47:15;;;;;;;6.72;2.40;;;;;;;12.63;53.95;99825.97;4955915;29;20050;-51
2021/05/22 00:50:04;;;;;;;6.70;2.28;;;;;;;12.69;55.42;99819.25;4955424;29;20135;-51
2021/05/22 00:52:52;;;;;;;7.43;1.90;;;;;;;12.62;54.42;99816.13;4942536;29;20051;-51
2021/05/22 00:55:40;;;;;;;5.30;2.08;;;;;;;12.57;55.07;99811.59;4955594;28;20055;-52
2021/05/22 00:58:28;;;;;;;6.75;2.30;;;;;;;12.58;54.64;99817.88;4955816;29;20134;-50
2021/05/22 01:01:15;;;;;;;5.90;2.08;;;;;;;12.58;55.08;99809.69;4955668;29;20039;-51
2021/05/22 01:04:03;;;;;;;8.43;2.40;;;;;;;12.65;54.72;99812.81;4955548;29;20051;-50
2021/05/22 01:06:51;;;;;;;7.95;2.63;;;;;;;12.71;54.69;99810.78;4955505;29;20391;-51
2021/05/22 01:09:40;;;;;;;6.82;2.25;;;;;;;12.64;54.66;99804.91;4955005;29;20074;-50
2021/05/22 01:12:36;;;;;;;5.13;2.05;;;;;;;12.65;55.02;99807.34;4954819;29;20122;-51
2021/05/22 01:15:26;;;;;;;7.07;2.10;;;;;;;12.58;53.85;99813.22;4945775;29;20051;-49
2021/05/22 01:18:14;;;;;;;8.07;2.88;;;;;;;12.51;54.79;99801.91;4955442;28;20495;-50
2021/05/22 01:21:05;;;;;;;9.48;2.40;;;;;;;12.55;54.59;99796.63;4955507;29;20620;-46
2021/05/22 01:24:01;;;;;;;8.15;2.45;;;;;;;12.51;54.05;99806.56;4945335;28;20057;-47
2021/05/22 01:26:50;;;;;;;7.55;2.50;;;;;;;12.46;54.51;99788.34;4955365;29;20066;-49
2021/05/22 01:29:37;;;;;;;7.32;2.35;;;;;;;12.47;54.35;99798.16;4954578;29;20055;-49
2021/05/22 01:32:25;;;;;;;4.70;1.90;;;;;;;12.50;55.80;99807.66;4955124;29;20062;-50
2021/05/22 01:35:15;;;;;;;4.78;1.90;;;;;;;12.46;57.33;99792.97;4954176;29;20043;-50
2021/05/22 01:38:02;;;;;;;7.53;2.30;;;;;;;12.43;55.95;99796.34;4955165;29;20055;-50
2021/05/22 01:40:50;;;;;;;3.83;1.77;;;;;;;12.53;56.21;99791.47;4954349;29;20064;-50
2021/05/22 01:43:40;;;;;;;5.05;2.28;;;;;;;12.65;56.99;99790.13;4955009;29;20119;-50
2021/05/22 01:46:43;;;;;;;5.88;1.77;;;;;;;12.52;55.25;99789.03;4954445;29;20051;-54
2021/05/22 01:49:33;;;;;;;6.00;2.13;;;;;;;12.56;56.01;99779.13;4954195;29;20047;-52
2021/05/22 01:52:21;;;;;;;4.03;1.73;;;;;;;12.63;59.71;99774.06;4952759;29;20062;-53
2021/05/22 01:55:11;;;;;;;5.13;1.90;;;;;;;12.59;56.56;99781.22;4954090;29;20122;-54
2021/05/22 01:57:59;;;;;;;5.38;1.65;;;;;;;12.55;57.54;99781.06;4954462;29;20415;-51
2021/05/22 02:00:46;;;;;;;5.57;1.92;;;;;;;12.69;56.42;99782.94;4954036;29;20138;-52
2021/05/22 02:03:38;;;;;;;6.72;2.30;;;;;;;12.53;55.69;99793.38;4954749;29;20051;-52
2021/05/22 02:06:27;;;;;;;4.15;1.77;;;;;;;12.53;57.11;99787.91;4953802;28;20605;-53
2021/05/22 02:09:15;;;;;;;9.27;2.08;;;;;;;12.48;56.39;99788.03;4953215;29;20479;-52
2021/05/22 02:12:04;;;;;;;2.72;1.42;;;;;;;12.52;56.38;99783.56;4954836;29;20189;-49
2021/05/22 02:14:54;;;;;;;5.57;2.10;;;;;;;12.60;56.34;99787.50;4954390;29;20123;-49
2021/05/22 02:17:42;;;;;;;5.32;2.17;;;;;;;12.67;56.82;99785.16;4954537;29;20059;-49
2021/05/22 02:20:31;;;;;;;4.82;1.70;;;;;;;12.58;55.67;99790.56;4953601;29;20043;-49
2021/05/22 02:23:18;;;;;;;4.82;1.77;;;;;;;12.39;55.67;99787.13;4952878;29;20051;-49
2021/05/22 02:26:07;;;;;;;5.40;1.95;;;;;;;12.36;57.58;99792.13;4953513;29;20418;-54
2021/05/22 02:28:55;;;;;;;5.80;1.98;;;;;;;12.33;56.39;99789.97;4954809;29;20522;-52
2021/05/22 02:31:45;;;;;;;6.22;2.15;;;;;;;12.24;56.97;99783.63;4955072;29;20137;-51
2021/05/22 02:34:37;;;;;;;3.95;1.52;;;;;;;12.23;56.67;99775.72;4954503;29;20517;-54
2021/05/22 02:37:30;;;;;;;6.57;1.90;;;;;;;12.26;57.54;99772.38;4953791;29;20134;-50
2021/05/22 02:40:27;;;;;;;4.20;1.70;;;;;;;12.24;56.52;99766.41;4952781;28;20138;-50
2021/05/22 02:43:15;;;;;;;6.00;1.88;;;;;;;12.25;56.71;99776.22;4953376;29;20043;-49
2021/05/22 02:46:03;;;;;;;3.90;1.83;;;;;;;12.24;56.67;99764.50;4953194;29;20079;-48
2021/05/22 02:48:52;;;;;;;5.32;1.73;;;;;;;12.26;56.18;99769.66;4953348;29;20043;-51
2021/05/22 02:51:41;;;;;;;4.75;1.90;;;;;;;12.40;57.09;99761.44;4952601;29;20130;-51
2021/05/22 02:54:39;;;;;;;;;;;;;;;12.42;57.93;99764.69;4953419;29;20047;-51
2021/05/22 02:57:27;;;;;;;6.15;2.15;;;;;;;12.44;56.18;99759.72;4953951;29;20808;-50
2021/05/22 03:00:16;;;;;;;3.42;1.52;;;;;;;12.44;58.35;99751.53;4953107;29;20117;-49
2021/05/22 03:03:04;;;;;;;4.68;1.70;;;;;;;12.42;56.67;99764.69;4953808;29;20567;-50
2021/05/22 03:05:52;;;;;;;10.90;2.20;;;;;;;12.29;56.61;99760.84;4939830;29;20406;-49
2021/05/22 03:08:45;;;;;;;7.90;2.15;;;;;;;12.21;56.86;99751.44;4953864;28;20426;-49
2021/05/22 03:11:34;;;;;;;5.00;1.88;;;;;;;12.21;57.80;99765.09;4953050;28;20130;-51
2021/05/22 03:14:22;;;;;;;5.70;1.98;;;;;;;12.23;57.46;99751.94;4953687;29;20051;-51
2021/05/22 03:17:10;;;;;;;7.13;1.98;;;;;;;12.19;57.00;99753.66;4953863;28;20055;-51
2021/05/22 03:19:57;;;;;;;7.30;2.20;;;;;;;12.18;57.13;99749.31;4957897;29;20130;-50
2021/05/22 03:22:45;;;;;;;3.50;1.88;;;;;;;12.16;57.72;99746.09;4957388;29;20383;-50
2021/05/22 03:25:33;;;;;;;4.80;1.52;;;;;;;12.27;58.59;99744.78;4957902;28;20137;-51
2021/05/22 03:28:21;;;;;;;8.73;2.28;;;;;;;12.31;58.11;99739.50;4957394;29;20051;-48
2021/05/22 03:31:09;;;;;;;3.10;1.33;;;;;;;12.38;60.45;99736.34;4957687;29;20051;-50
2021/05/22 03:33:57;;;;;;;6.00;2.22;;;;;;;12.39;57.85;99748.88;4957511;29;20122;-51
2021/05/22 03:36:45;;;;;;;5.00;1.73;;;;;;;12.33;58.19;99751.72;4956726;29;20043;-52
2021/05/22 03:39:33;;;;;;;2.83;1.50;;;;;;;12.24;58.09;99748.13;4957288;29;20047;-51
2021/05/22 03:42:22;;;;;;;5.68;1.77;;;;;;;12.27;59.23;99752.16;4957479;29;20413;-49
2021/05/22 03:45:10;;;;;;;5.90;2.25;;;;;;;12.15;58.50;99755.41;4969392;28;20077;-50
2021/05/22 03:47:57;;;;;;;4.63;2.00;;;;;;;12.23;58.70;99756.59;4957179;29;20050;-51
2021/05/22 03:50:45;;;;;;;7.45;2.13;;;;;;;12.22;59.09;99750.34;4956730;29;20058;-51
2021/05/22 03:53:33;;;;;;;4.07;1.90;;;;;;;12.26;59.16;99750.53;4956832;29;20058;-50
2021/05/22 03:56:20;;;;;;;5.88;2.10;;;;;;;12.20;59.65;99757.22;4969611;28;20079;-50
2021/05/22 03:59:08;;;;;;;5.55;1.88;;;;;;;12.24;59.35;99747.28;4956926;29;20043;-52
2021/05/22 04:01:55;;;;;;;5.55;2.05;;;;;;;12.16;59.08;99740.63;4969301;28;20050;-51
2021/05/22 04:04:43;;;;;;;4.00;1.92;;;;;;;12.15;59.28;99744.50;4956375;29;20541;-48
2021/05/22 04:07:31;;;;;;;7.05;1.75;;;;;;;12.30;60.18;99741.41;4956487;29;20443;-49
2021/05/22 04:10:18;;;;;;;6.20;2.20;;;;;;;12.31;59.01;99744.97;4956647;29;20513;-50
2021/05/22 04:13:06;;;;;;;4.43;1.90;;;;;;;12.27;59.96;99752.97;4956528;29;20050;-51
2021/05/22 04:15:54;;;;;;;7.25;2.97;;;;;;;12.20;59.03;99744.38;4969106;28;20122;-50
2021/05/22 04:18:41;;;;;;;4.50;1.83;;;;;;;12.22;59.51;99750.34;4956072;28;20090;-51
2021/05/22 04:21:29;;;;;;;5.10;1.90;;;;;;;12.22;59.17;99741.31;4956347;29;20055;-50
2021/05/22 04:24:17;;;;;;;6.88;2.40;;;;;;;12.17;59.16;99736.81;4956500;29;20043;-49
2021/05/22 04:27:05;;;;;;;3.83;1.83;;;;;;;12.12;59.40;99750.53;4956306;28;20055;-53
2021/05/22 04:29:52;;;;;;;7.68;2.25;;;;;;;12.08;59.15;99736.69;4955826;28;20409;-51
2021/05/22 04:32:40;;;;;;;9.23;2.67;;;;;;;12.04;59.20;99740.34;4956205;29;20147;-52
2021/05/22 04:35:27;;;;;;;4.50;1.80;;;;;;;12.09;60.36;99741.03;4955671;28;20402;-49
2021/05/22 04:38:15;;;;;;;6.45;2.00;;;;;;;12.14;60.30;99734.66;4955459;29;20056;-46
2021/05/22 04:41:03;;;;;;;5.18;1.60;;;;;;;12.11;60.48;99738.81;4955714;29;20065;-46
2021/05/22 04:43:51;;;;;;;5.45;1.92;;;;;;;12.22;59.92;99747.63;4955781;29;20059;-47
2021/05/22 04:46:38;;;;;;;2.95;1.23;;;;;;;12.27;60.35;99739.31;4955286;29;20123;-49
2021/05/22 04:49:29;;;;;;;6.35;2.40;;;;;;;12.17;59.37;99753.19;4955268;29;20050;-50
2021/05/22 04:52:16;;;;;;;6.15;2.15;;;;;;;12.08;60.47;99749.53;4954953;29;20063;-50
2021/05/22 04:55:04;;;;;;;4.68;1.83;;;;;;;12.09;60.64;99756.63;4955199;29;20102;-49
2021/05/22 04:57:52;;;;;;;12.10;3.10;;;;;;;12.02;60.58;99751.56;4955344;29;20114;-52
2021/05/22 05:00:40;;;;;;;7.57;2.58;;;;;;;12.12;60.88;99750.53;4955105;29;20051;-50
2021/05/22 05:03:27;;;;;;;6.18;2.20;;;;;;;12.14;61.11;99759.22;4955348;29;20051;-51
2021/05/22 05:06:15;;;;;;;8.70;2.40;;;;;;;12.06;61.35;99763.50;4955601;28;20043;-47
2021/05/22 05:09:04;;;;;;;5.18;1.80;;;;;;;12.40;63.12;99758.72;4955496;29;20055;-48
2021/05/22 05:11:52;;;;;;;10.38;2.97;;;;;;;12.32;61.54;99760.25;4955929;29;20055;-51
2021/05/22 05:14:40;;;;;;;10.00;2.22;;;;;;;12.40;62.04;99751.31;4954507;29;20560;-50
2021/05/22 05:17:27;;;;;;;4.05;1.58;;;;;;;12.46;61.93;99755.56;4967238;28;20126;-50
2021/05/22 05:20:15;;;;;;;6.40;2.15;;;;;;;12.59;60.98;99753.91;4955703;29;20050;-55
2021/05/22 05:23:03;;;;;;;12.38;2.92;;;;;;;12.57;60.69;99761.59;4955078;29;20122;-52
2021/05/22 05:25:53;;;;;;;7.75;2.42;;;;;;;12.55;61.71;99761.94;4955484;29;20051;-52
2021/05/22 05:28:41;;;;;;;8.85;2.58;;;;;;;12.43;61.75;99766.28;4943155;29;20569;-51
2021/05/22 05:31:29;;;;;;;6.32;1.95;;;;;;;12.48;61.47;99768.91;4954740;28;20051;-52
2021/05/22 05:34:16;;;;;;;11.52;2.67;;;;;;;12.25;62.44;99766.13;4955182;29;20047;-50
2021/05/22 05:37:04;;;;;;;7.68;2.50;;;;;;;12.15;62.79;99777.25;4955402;28;20059;-50
2021/05/22 05:39:52;;;;;;;6.20;2.28;;;;;;;12.37;63.17;99773.78;4954287;28;20131;-49
2021/05/22 05:42:39;;;;;;;6.20;2.00;;;;;;;12.54;61.90;99773.97;4954959;29;20051;-51
2021/05/22 05:45:27;;;;;;;4.05;1.45;;;;;;;12.53;62.61;99787.91;4933115;29;20494;-53
2021/05/22 05:48:13;;;;;;;7.43;2.40;;;;;;;12.33;62.77;99787.22;4933222;29;20152;-52
2021/05/22 05:51:01;;;;;;;5.32;2.17;;;;;;;12.40;62.78;99788.75;4933755;29;20561;-53
2021/05/22 05:53:49;;;;;;;4.20;1.63;;;;;;;12.52;63.17;99780.84;4933780;29;20052;-50
2021/05/22 05:56:37;;;;;;;7.70;2.22;;;;;;;12.34;62.49;99788.88;4933195;29;20537;-52
2021/05/22 05:59:25;;;;;;;5.90;2.13;;;;;;;12.29;62.91;99790.88;4934541;28;20036;-51
2021/05/22 06:02:13;;;;;;;3.42;1.52;;;;;;;12.42;63.42;99797.47;4933369;29;20043;-51
2021/05/22 06:05:01;;;;;;;7.38;2.30;;;;;;;12.20;62.26;99788.06;4933573;29;20059;-53
2021/05/22 06:07:49;;;;;;;6.05;2.25;;;;;;;12.16;63.45;99795.25;4919843;29;20035;-49
2021/05/22 06:10:37;;;;;;;6.60;2.40;;;;;;;12.26;62.82;99805.16;4920672;29;20059;-52
2021/05/22 06:13:34;;;;;;;7.45;1.92;;;;;;;12.35;63.42;99787.75;4932928;29;20047;-54
2021/05/22 06:16:40;;;;;;;6.13;2.00;;;;;;;12.33;63.08;99805.56;4941706;29;20059;-52
2021/05/22 06:19:28;;;;;;;4.30;1.60;;;;;;;12.22;63.94;99806.88;4953073;29;20506;-49
2021/05/22 06:22:16;;;;;;;9.75;2.53;;;;;;;12.08;63.83;99815.06;4939880;29;20414;-51
2021/05/22 06:25:04;;;;;;;5.70;2.03;;;;;;;11.86;64.98;99811.09;4966088;28;20062;-49
2021/05/22 06:27:52;;;;;;;4.47;1.67;;;;;;;11.76;65.70;99803.09;4952018;29;20166;-51
2021/05/22 06:30:40;;;;;;;6.18;2.45;;;;;;;11.70;65.21;99804.28;4947922;29;20055;-51
2021/05/22 06:33:29;;;;;;;10.25;2.60;;;;;;;11.79;65.39;99796.22;4942632;28;20494;-50
2021/05/22 06:36:17;;;;;;;7.25;2.15;;;;;;;11.65;66.00;99816.09;4952494;29;20062;-51
2021/05/22 06:39:05;;;;;;;8.30;2.25;;;;;;;11.59;66.21;99813.75;4945158;28;20047;-54
2021/05/22 06:41:54;;;;;;;9.52;2.22;;;;;;;11.51;66.70;99821.50;4953384;29;20056;-51
2021/05/22 06:44:49;;;;;;;12.38;2.50;;;;;;;11.60;66.29;99831.75;4951306;29;20538;-51
2021/05/22 06:47:37;;;;;;;7.95;2.38;;;;;;;11.61;65.80;99825.97;4949308;29;20047;-54
2021/05/22 06:50:25;;;;;;;6.70;2.35;;;;;;;11.56;66.51;99825.25;4953505;28;20410;-51
2021/05/22 06:53:15;;;;;;;7.38;2.53;;;;;;;11.56;66.59;99828.00;4953211;28;20055;-52
2021/05/22 06:56:03;;;;;;;5.03;1.80;;;;;;;11.56;66.38;99825.25;4948148;29;20573;-52
2021/05/22 06:58:51;;;;;;;8.30;2.33;;;;;;;11.50;66.76;99828.09;4951197;29;20134;-53
2021/05/22 07:01:39;;;;;;;7.97;2.15;;;;;;;11.63;66.69;99831.16;4943121;28;20531;-51
2021/05/22 07:04:27;;;;;;;8.88;2.85;;;;;;;11.59;67.08;99836.38;4953038;28;20130;-53
2021/05/22 07:07:15;;;;;;;8.70;2.45;;;;;;;11.60;66.62;99827.09;4953427;28;20495;-52
2021/05/22 07:10:04;;;;;;;6.32;2.13;;;;;;;11.55;66.95;99837.28;4940723;29;20043;-50
2021/05/22 07:12:52;;;;;;;8.57;2.38;;;;;;;11.55;67.34;99840.81;4951604;29;20126;-49
2021/05/22 07:15:40;;;;;;;7.03;2.58;;;;;;;11.54;67.59;99843.84;4953174;28;20429;-49
2021/05/22 07:18:28;;;;;;;7.22;2.72;;;;;;;11.55;68.46;99857.19;4953363;28;20051;-50
2021/05/22 07:21:16;;;;;;;7.97;2.40;;;;;;;11.55;68.10;99854.47;4951875;29;20462;-52
2021/05/22 07:24:04;;;;;;;7.07;2.33;;;;;;;11.57;68.24;99865.06;4951359;29;20063;-50
2021/05/22 07:26:52;;;;;;;6.82;2.38;;;;;;;11.49;68.90;99870.09;4953416;28;20055;-51
2021/05/22 07:29:41;;;;;;;7.45;2.33;;;;;;;11.54;69.25;99868.41;4951072;29;20536;-53
2021/05/22 07:32:28;;;;;;;9.02;2.72;;;;;;;11.54;69.70;99871.13;4954137;28;20191;-52
2021/05/22 07:35:17;;;;;;;7.20;2.10;;;;;;;11.54;69.66;99871.94;4953545;29;20406;-53
2021/05/22 07:38:05;;;;;;;7.38;2.38;;;;;;;11.47;70.51;99872.34;4953808;28;20123;-54
2021/05/22 07:40:53;;;;;;;6.50;2.50;;;;;;;11.47;70.35;99883.25;4953981;28;20110;-54
2021/05/22 07:43:41;;;;;;;7.68;2.55;;;;;;;11.42;70.80;99880.56;4953448;28;20055;-54
2021/05/22 07:46:30;;;;;;;8.45;2.33;;;;;;;11.40;70.90;99882.81;4953022;28;20413;-54
2021/05/22 07:49:18;;;;;;;19.70;4.82;;;;;;;11.45;71.01;99885.44;4953056;28;20051;-56
2021/05/22 07:52:09;;;;;;;7.75;2.60;;;;;;;11.46;70.72;99881.59;4951831;29;20126;-54
2021/05/22 07:54:57;;;;;;;7.70;2.50;;;;;;;11.41;71.86;99897.25;4946039;29;20047;-48
2021/05/22 07:57:45;;;;;;;7.43;2.53;;;;;;;11.48;71.18;99890.31;4949515;29;20043;-53
2021/05/22 08:00:33;;;;;;;10.43;2.78;;;;;;;11.47;71.47;99899.59;4951724;29;20052;-50
2021/05/22 08:03:21;;;;;;;11.98;3.95;;;;;;;11.52;71.40;99906.91;4941660;28;20062;-51
2021/05/22 08:06:09;;;;;;;7.03;2.25;;;;;;;11.43;71.93;99895.84;4955931;29;20102;-54
2021/05/22 08:08:57;;;;;;;16.52;5.32;;;;;;;11.59;71.72;99898.31;4954666;29;20043;-49
2021/05/22 08:11:45;;;;;;;13.77;4.65;;;;;;;11.62;70.85;99895.81;4956457;28;20395;-50
2021/05/22 08:14:33;;;;;;;13.98;3.97;;;;;;;11.60;71.95;99899.97;4954271;28;20198;-50
2021/05/22 08:17:22;;;;;;;9.32;2.90;;;;;;;11.76;70.81;99900.50;4948397;29;20099;-50
2021/05/22 08:20:11;;;;;;;6.85;2.30;;;;;;;11.80;70.79;99890.63;4951677;29;20098;-50
2021/05/22 08:23:00;;;;;;;12.30;3.72;;;;;;;11.63;71.28;99913.81;4955214;29;20055;-51
2021/05/22 08:25:48;;;;;;;6.10;2.15;;;;;;;11.60;71.06;99908.16;4953695;29;20047;-51
2021/05/22 08:28:56;;;;;;;7.97;2.05;;;;;;;11.61;71.19;99924.19;4086471;28;10000638;-49
2021/05/22 08:31:44;;;;;;;5.40;2.15;;;;;;;11.56;71.58;99909.84;4950566;29;20457;-51
2021/05/22 08:34:33;;;;;;;5.28;2.12;;;;;;;11.43;72.58;99917.66;4092225;28;10001742;-49
2021/05/22 08:37:01;;;;;;;12.50;4.15;;;;;;;11.53;72.53;99911.25;4954264;28;20044;-50
2021/05/22 08:39:28;;;;;;;4.55;1.98;;;;;;;11.43;72.92;99920.38;4953933;28;20043;-52
2021/05/22 08:41:56;;;;;;;6.07;2.03;;;;;;;11.29;72.91;99925.78;4941291;28;20453;-52
2021/05/22 08:44:24;;;;;;;10.60;2.42;;;;;;;11.27;73.80;99922.53;4948896;28;20099;-50
2021/05/22 08:46:51;;;;;;;6.43;2.17;;;;;;;11.29;73.72;99920.31;4952553;28;20043;-52
2021/05/22 08:49:19;;;;;;;5.55;1.98;;;;;;;11.39;73.51;99930.25;4955655;28;20055;-51
2021/05/22 08:51:47;;;;;;;8.07;2.47;;;;;;;11.45;72.05;99929.09;4944945;29;20047;-49
2021/05/22 08:54:15;;;;;;;4.68;1.85;;;;;;;11.40;73.08;99937.34;4955270;28;20040;-51
2021/05/22 08:56:42;;;;;;;6.22;1.85;;;;;;;11.36;73.39;99936.31;4954380;29;20063;-49
2021/05/22 08:59:11;;;;;;;4.07;2.20;;;;;;;11.45;72.73;99920.09;4955596;28;20039;-50
2021/05/22 09:01:39;;;;;;;7.53;2.15;;;;;;;11.50;72.37;99931.75;4955612;28;20043;-51
2021/05/22 09:04:07;;;;;;;7.78;2.20;;;;;;;11.48;72.74;99942.13;4955276;28;20074;-50
2021/05/22 09:06:54;;;;;;;4.45;2.00;;;;;;;11.45;72.67;99933.75;4955254;28;20050;-49
2021/05/22 09:09:21;;;;;;;6.28;2.45;;;;;;;11.56;72.47;99935.19;4953512;29;20406;-51
2021/05/22 09:11:51;;;;;;;6.55;2.10;;;;;;;11.54;72.24;99937.41;4956972;29;20070;-53
2021/05/22 09:14:45;;;;;;;6.53;2.28;;;;;;;11.66;72.20;99937.75;4956490;28;20062;-53
2021/05/22 09:17:13;;;;;;;6.00;2.30;;;;;;;11.60;71.64;99940.88;4957952;28;20517;-54
2021/05/22 09:19:41;;;;;;;7.60;2.20;;;;;;;11.52;72.14;99945.09;4956562;28;20110;-50
2021/05/22 09:22:27;;;;;;;9.60;2.83;;;;;;;11.58;72.14;99948.56;4953897;28;20051;-47
2021/05/22 09:25:03;;;;;;;8.48;2.15;;;;;;;11.52;71.90;99956.81;4953504;29;20043;-51
2021/05/22 09:27:38;;;;;;;5.72;2.08;;;;;;;11.50;72.71;99947.31;4955341;28;20090;-48
2021/05/22 09:30:17;;;;;;;7.70;2.33;;;;;;;11.42;72.26;99959.66;4954792;29;20094;-50
2021/05/22 09:32:46;;;;;;;5.82;1.98;;;;;;;11.52;71.83;99964.19;4955246;28;20410;-52
2021/05/22 09:35:15;;;;;;;6.78;2.28;;;;;;;11.57;70.82;99957.81;4954823;28;20062;-52
2021/05/22 09:37:46;;;;;;;5.97;1.80;;;;;;;11.48;72.11;99963.97;4954452;28;20047;-51
2021/05/22 09:40:16;;;;;;;5.40;1.42;;;;;;;11.51;72.38;99971.53;4953230;28;20043;-52
2021/05/22 09:42:44;;;;;;;6.75;2.33;;;;;;;11.54;72.00;99972.88;4954900;28;20390;-51
2021/05/22 09:45:27;;;;;;;5.57;2.08;;;;;;;11.59;72.54;99974.72;4953726;28;20043;-55
2021/05/22 09:47:56;;;;;;;2.42;1.58;;;;;;;11.60;72.51;99985.34;4954290;28;20422;-52
2021/05/22 09:50:28;;;;;;;3.95;1.70;;;;;;;11.57;72.18;99983.22;4954362;28;20058;-52
2021/05/22 09:52:56;;;;;;;7.95;2.50;;;;;;;11.55;72.02;99987.34;4954008;28;20514;-51
2021/05/22 09:55:24;;;;;;;5.10;1.73;;;;;;;11.57;72.49;99987.84;4954730;28;20043;-51
2021/05/22 09:57:55;;;;;;;6.15;2.25;;;;;;;11.61;72.16;99991.59;4954382;28;20184;-50
2021/05/22 10:00:27;;;;;;;6.47;1.95;;;;;;;11.73;71.74;100002.88;4954315;28;20051;-50
2021/05/22 10:02:57;;;;;;;6.20;1.85;;;;;;;11.67;72.69;99998.63;4264615;28;10000792;-51
2021/05/22 10:05:25;;;;;;;6.05;2.20;;;;;;;11.70;72.50;100004.28;4944435;29;20054;-52
2021/05/22 10:07:55;;;;;;;6.82;2.38;;;;;;;11.67;71.89;99999.44;4951596;28;20474;-49
2021/05/22 10:10:41;;;;;;;6.13;2.00;;;;;;;11.65;72.38;100009.03;4952048;28;20055;-50
2021/05/22 10:13:09;;;;;;;6.78;2.40;;;;;;;11.66;72.62;100010.63;4952128;28;20503;-52
2021/05/22 10:15:37;;;;;;;3.78;1.85;;;;;;;11.71;72.80;100010.53;4951507;28;20406;-51
2021/05/22 10:18:07;;;;;;;5.18;2.30;;;;;;;11.68;72.30;100008.41;4951696;28;20039;-50
2021/05/22 10:20:35;;;;;;;5.85;2.10;;;;;;;11.63;72.70;100005.78;4951979;28;20051;-50
2021/05/22 10:23:03;;;;;;;4.95;1.95;;;;;;;11.80;72.45;100022.44;4951567;28;20046;-50
2021/05/22 10:25:31;;;;;;;6.32;2.10;;;;;;;11.76;72.98;100015.13;4952254;28;20539;-52
2021/05/22 10:27:59;;;;;;;4.13;1.80;;;;;;;11.76;72.16;100015.13;4949385;28;20055;-51
2021/05/22 10:30:27;;;;;;;5.70;1.95;;;;;;;11.70;72.99;100012.47;4951429;28;20031;-52
2021/05/22 10:33:03;;;;;;;6.97;2.25;;;;;;;11.76;72.80;100032.34;4951697;28;20047;-50
2021/05/22 10:35:49;;;;;;;6.17;2.00;;;;;;;11.72;73.18;100037.56;4951790;28;20074;-52
2021/05/22 10:38:32;;;;;;;;;;;;;;;11.65;73.18;100030.84;4951379;28;20306;-48
2021/05/22 10:41:01;;;;;;;7.47;2.28;;;;;;;11.60;73.40;100044.56;4950842;28;19926;-50
2021/05/22 10:43:45;;;;;;;5.93;2.03;;;;;;;11.63;74.07;100055.69;4951580;28;20553;-51
2021/05/22 10:46:13;;;;;;;3.17;1.73;;;;;;;11.62;74.41;100053.28;4951763;28;20055;-52
2021/05/22 10:48:44;;;;;;;5.40;2.05;;;;;;;11.71;73.22;100056.94;4951260;28;20062;-53
2021/05/22 10:51:32;;;;;;;3.90;1.75;;;;;;;11.72;74.25;100050.41;4950905;28;20052;-53
2021/05/22 10:54:04;;;;;;;4.13;1.95;;;;;;;11.61;74.91;100057.09;4951505;28;20061;-51
2021/05/22 10:56:32;;;;;;;5.75;2.10;;;;;;;11.61;74.72;100062.53;4951629;28;20502;-54
2021/05/22 10:59:00;;;;;;;6.80;2.28;;;;;;;11.57;75.18;100061.50;4966051;28;20043;-55
2021/05/22 11:01:29;;;;;;;5.82;2.22;;;;;;;11.57;75.89;100069.69;4950624;28;20135;-54
2021/05/22 11:04:13;;;;;;;8.63;2.78;;;;;;;11.55;74.95;100074.66;4950634;28;20039;-52
2021/05/22 11:06:48;;;;;;;5.63;2.78;;;;;;;11.49;75.52;100080.16;4951434;28;20502;-54
2021/05/22 11:09:29;;;;;;;3.67;1.97;;;;;;;11.57;75.94;100077.88;4950875;29;20074;-54
2021/05/22 11:11:59;;;;;;;2.67;1.60;;;;;;;11.51;76.51;100090.78;4951562;28;20047;-54
2021/05/22 11:14:42;;;;;;;3.80;1.83;;;;;;;11.50;76.80;100089.97;4949601;28;20052;-55
2021/05/22 11:17:22;;;;;;;4.40;2.08;;;;;;;11.54;76.62;100100.28;4953512;28;20529;-50
2021/05/22 11:20:09;;;;;;;5.25;1.92;;;;;;;11.49;76.77;100104.69;4952787;28;20054;-53
2021/05/22 11:22:39;;;;;;;4.60;1.98;;;;;;;11.49;76.73;100122.97;4953301;28;20043;-52
2021/05/22 11:25:11;;;;;;;3.88;1.75;;;;;;;11.55;76.38;100118.31;4940060;29;20475;-53
2021/05/22 11:30:38;;;;;;;5.45;2.10;;;;;;;11.54;78.23;100130.31;4952884;29;20043;-53
2021/05/22 11:33:09;;;;;;;3.95;2.03;;;;;;;11.52;78.02;100142.31;4952962;28;20509;-54
2021/05/22 11:35:50;;;;;;;6.10;2.30;;;;;;;11.50;78.51;100160.09;4953468;28;20055;-51
2021/05/22 11:38:19;;;;;;;4.28;2.15;;;;;;;11.49;78.34;100164.72;4953066;28;20059;-52
2021/05/22 11:41:02;;;;;;;5.70;2.30;;;;;;;11.48;78.34;100163.09;4956483;28;20051;-55
2021/05/22 11:43:33;;;;;;;4.47;2.05;;;;;;;11.46;77.99;100181.66;4957146;28;20522;-53
2021/05/22 11:46:03;;;;;;;4.07;2.00;;;;;;;11.41;78.51;100183.66;4956711;28;20498;-56
2021/05/22 11:48:41;;;;;;;5.93;2.20;;;;;;;11.40;78.98;100193.75;4956193;28;20051;-54
2021/05/22 11:51:21;;;;;;;5.15;1.90;;;;;;;11.35;79.54;100207.41;4956777;28;20039;-53
2021/05/22 11:53:56;;;;;;;4.80;1.98;;;;;;;11.25;78.30;100196.63;4956775;28;20098;-52
2021/05/22 11:56:25;;;;;;;3.15;1.45;;;;;;;11.18;77.98;100204.31;4956525;28;20055;-52
2021/05/22 11:58:54;;;;;;;2.63;1.45;;;;;;;11.15;78.44;100213.09;4956594;28;20047;-52
2021/05/22 12:01:25;;;;;;;3.53;1.48;;;;;;;11.08;78.34;100213.41;4943699;29;20486;-54
2021/05/22 12:03:55;;;;;;;3.10;1.60;;;;;;;11.14;78.74;100214.19;4956142;28;20337;-51
2021/05/22 12:06:24;;;;;;;2.55;1.63;;;;;;;11.21;79.03;100220.13;4956767;28;20043;-50
2021/05/22 12:09:20;;;;;;;4.38;2.00;;;;;;;11.23;78.63;100220.63;4956310;28;20051;-53
2021/05/22 12:12:03;;;;;;;1.90;1.50;;;;;;;11.28;79.24;100239.66;4956726;28;20102;-53
2021/05/22 12:14:39;;;;;;;2.88;1.80;;;;;;;11.32;79.11;100245.38;4955368;29;20058;-47
2021/05/22 12:17:07;;;;;;;;;;;;;;;11.34;79.09;100238.53;4956555;28;20040;-50
2021/05/22 12:19:37;;;;;;;1.95;1.73;;;;;;;11.41;79.29;100249.13;4955817;28;19923;-50
2021/05/22 12:22:10;;;;;;;4.47;2.10;;;;;;;11.48;79.17;100250.41;4956445;28;20509;-50
2021/05/22 12:24:39;;;;;;;5.25;2.10;;;;;;;11.46;78.55;100252.59;4956273;28;20067;-53
2021/05/22 12:27:07;;;;;;;5.15;2.10;;;;;;;11.41;78.83;100262.75;4955014;29;20098;-50
2021/05/22 12:29:35;;;;;;;3.63;2.08;;;;;;;11.41;78.84;100255.38;4954215;29;20058;-53
2021/05/22 12:32:06;;;;;;;3.97;2.20;;;;;;;11.39;78.43;100265.75;4955390;28;20122;-53
2021/05/22 12:34:37;;;;;;;2.63;2.00;;;;;;;11.41;78.27;100269.00;4956393;28;20512;-52
2021/05/22 12:37:06;;;;;;;5.40;2.28;;;;;;;11.41;78.37;100266.28;4955065;29;20047;-53
2021/05/22 12:39:46;;;;;;;2.38;1.88;;;;;;;11.42;78.03;100273.34;4954738;28;20059;-51
2021/05/22 12:42:30;;;;;;;3.13;2.17;;;;;;;11.41;77.96;100282.66;4955656;28;20442;-51
2021/05/22 12:45:09;;;;;;;3.00;2.10;;;;;;;11.39;77.06;100287.56;4955747;28;20585;-51
2021/05/22 12:47:45;;;;;;;3.80;2.20;;;;;;;11.39;77.57;100284.84;4955581;28;20039;-54
2021/05/22 12:50:27;;;;;;;4.90;2.50;;;;;;;11.36;77.65;100288.16;4269126;28;10022254;-50